Time;durP1;ratioP1;P1;durP2;ratioP2;P2;SDS_P1;SDS_P2;PMS_P1;PMS_P2;Temp;Humidity;BMP_temperature;BMP_pressure;BME280_temperature;BME280_humidity;BME280_pressure;Samples;Min_cycle;Max_cycle;Signal;HPM_P1;HPM_P2
2022/08/26 00:01:53;;;;;;;14.07;7.78;;;;;;;23.69;66.24;100978.84;4987938;28;20407;-68
2022/08/26 00:04:22;;;;;;;19.55;8.95;;;;;;;23.54;66.74;100991.97;5000702;28;20644;-68
2022/08/26 00:06:48;;;;;;;13.57;8.27;;;;;;;23.42;67.25;100979.84;4995925;28;20046;-68
2022/08/26 00:09:15;;;;;;;17.77;8.25;;;;;;;23.49;67.02;100977.38;4986378;28;20096;-68
2022/08/26 00:11:41;;;;;;;19.20;8.25;;;;;;;23.51;67.26;100975.38;4995525;28;20460;-68
2022/08/26 00:14:07;;;;;;;16.85;8.13;;;;;;;23.44;67.21;100977.00;5001811;28;20070;-68
2022/08/26 00:16:34;;;;;;;18.88;8.52;;;;;;;23.28;67.66;100978.53;5005034;28;20066;-68
2022/08/26 00:19:00;;;;;;;19.13;8.75;;;;;;;23.22;68.09;100976.47;5007798;28;20050;-69
2022/08/26 00:21:28;;;;;;;21.90;10.00;;;;;;;23.07;68.47;100974.50;5008295;28;20046;-68
2022/08/26 00:23:54;;;;;;;15.20;9.80;;;;;;;23.07;68.87;100969.16;5005633;28;20115;-68
2022/08/26 00:26:21;;;;;;;19.63;9.50;;;;;;;23.13;68.82;100968.53;5006871;28;20057;-68
2022/08/26 00:28:48;;;;;;;17.58;9.93;;;;;;;23.05;69.22;100966.66;5001056;28;20048;-68
2022/08/26 00:31:15;;;;;;;16.92;9.80;;;;;;;23.02;69.42;100971.47;4991076;28;20105;-68
2022/08/26 00:33:41;;;;;;;26.00;10.23;;;;;;;22.88;69.79;100967.47;4991922;28;20427;-68
2022/08/26 00:36:09;;;;;;;17.50;9.48;;;;;;;22.79;70.45;100966.56;5007429;28;20119;-68
2022/08/26 00:38:38;;;;;;;21.50;9.88;;;;;;;22.91;69.78;100971.69;5006666;28;20041;-68
2022/08/26 00:41:05;;;;;;;18.83;11.13;;;;;;;22.95;69.72;100975.75;5007811;28;20100;-68
2022/08/26 00:43:34;;;;;;;18.80;11.60;;;;;;;22.94;69.72;100972.22;4995436;28;20058;-68
2022/08/26 00:46:06;;;;;;;18.67;10.43;;;;;;;22.97;69.67;100971.06;4999395;28;20103;-67
2022/08/26 00:48:34;;;;;;;18.38;10.80;;;;;;;22.92;69.93;100974.19;4994878;28;20078;-67
2022/08/26 00:51:04;;;;;;;16.83;9.88;;;;;;;22.76;70.34;100969.53;5003391;28;20512;-67
2022/08/26 00:53:34;;;;;;;19.88;11.02;;;;;;;22.67;70.85;100974.91;5005902;28;20057;-68
2022/08/26 00:56:07;;;;;;;20.05;11.07;;;;;;;22.75;70.93;100969.69;4995281;28;20046;-68
2022/08/26 00:58:34;;;;;;;19.65;10.85;;;;;;;22.75;70.78;100965.19;5000145;28;20130;-68
2022/08/26 01:01:01;;;;;;;22.58;11.15;;;;;;;22.59;71.02;100964.97;5007115;28;20069;-68
2022/08/26 01:03:30;;;;;;;15.43;10.73;;;;;;;22.59;71.18;100956.13;5005787;28;20054;-68
2022/08/26 01:05:59;;;;;;;18.27;10.35;;;;;;;22.45;71.54;100957.47;5004148;28;20123;-68
2022/08/26 01:08:26;;;;;;;26.95;13.43;;;;;;;22.36;72.04;100954.88;5004887;28;20053;-68
2022/08/26 01:10:53;;;;;;;23.90;12.55;;;;;;;22.28;72.85;100956.44;5004174;28;20159;-68
2022/08/26 01:13:21;;;;;;;19.88;11.82;;;;;;;22.36;72.79;100954.88;4996666;28;20065;-68
2022/08/26 01:15:52;;;;;;;26.23;11.90;;;;;;;22.53;72.04;100949.56;4973822;28;20077;-68
2022/08/26 01:18:18;;;;;;;22.10;11.38;;;;;;;22.49;72.10;100948.19;4990914;28;20101;-68
2022/08/26 01:20:55;;;;;;;18.38;11.05;;;;;;;22.56;71.86;100953.75;5003851;28;20152;-68
2022/08/26 01:23:26;;;;;;;20.80;12.20;;;;;;;22.60;72.03;100949.78;5005937;28;20049;-68
2022/08/26 01:25:56;;;;;;;19.20;11.80;;;;;;;22.63;71.56;100953.00;5006443;28;20075;-68
2022/08/26 01:28:28;;;;;;;16.13;11.35;;;;;;;22.61;71.51;100951.47;5004782;28;20441;-68
2022/08/26 01:30:57;;;;;;;15.07;11.20;;;;;;;22.52;72.01;100952.38;5006277;28;20065;-68
2022/08/26 01:33:29;;;;;;;23.63;11.70;;;;;;;22.38;73.09;100950.22;5004537;28;20417;-68
2022/08/26 01:35:56;;;;;;;19.13;11.85;;;;;;;22.24;72.98;100965.78;5005988;28;20501;-68
2022/08/26 01:38:23;;;;;;;26.10;12.07;;;;;;;22.31;72.56;100956.16;5003929;28;20073;-68
2022/08/26 01:40:50;;;;;;;16.05;11.38;;;;;;;22.27;72.64;100960.13;5006822;28;20116;-68
2022/08/26 01:43:20;;;;;;;21.80;12.45;;;;;;;22.36;73.24;100954.88;5000949;28;20115;-68
2022/08/26 01:45:48;;;;;;;19.33;11.88;;;;;;;22.46;72.55;100953.00;4996121;28;20104;-68
2022/08/26 01:48:19;;;;;;;17.73;11.65;;;;;;;22.41;72.97;100958.78;5006032;28;20049;-68
2022/08/26 01:50:46;;;;;;;21.30;11.70;;;;;;;22.40;72.98;100953.56;5005168;28;20572;-68
2022/08/26 01:53:16;;;;;;;22.40;11.60;;;;;;;22.48;72.55;100961.69;5004800;28;20054;-68
2022/08/26 01:55:47;;;;;;;19.10;11.57;;;;;;;22.55;71.95;100952.91;5005783;28;20556;-68
2022/08/26 01:58:20;;;;;;;14.85;12.18;;;;;;;22.46;72.71;100945.81;5005098;28;20049;-68
2022/08/26 02:00:47;;;;;;;24.05;11.65;;;;;;;22.39;72.53;100941.22;5004458;28;20103;-68
2022/08/26 02:03:20;;;;;;;23.08;11.45;;;;;;;22.44;72.35;100944.25;5002370;28;20092;-68
2022/08/26 02:05:52;;;;;;;21.02;11.75;;;;;;;22.40;72.76;100938.38;4997713;28;20049;-68
2022/08/26 02:08:20;;;;;;;17.17;11.60;;;;;;;22.43;72.02;100937.25;5003288;28;20049;-67
2022/08/26 02:10:48;;;;;;;22.65;11.77;;;;;;;22.30;72.87;100942.94;4995220;28;20099;-67
2022/08/26 02:13:14;;;;;;;23.42;11.93;;;;;;;22.27;72.98;100944.09;5003757;28;20073;-67
2022/08/26 02:15:44;;;;;;;21.65;12.20;;;;;;;22.43;72.59;100947.94;5004741;28;20204;-67
2022/08/26 02:18:11;;;;;;;29.83;13.50;;;;;;;22.58;72.16;100941.09;5006312;28;20050;-67
2022/08/26 02:20:38;;;;;;;17.63;12.55;;;;;;;22.61;72.15;100946.13;5004520;28;20135;-67
2022/08/26 02:23:05;;;;;;;20.50;11.35;;;;;;;22.58;72.23;100941.09;5003690;28;20068;-67
2022/08/26 02:25:40;;;;;;;23.83;11.65;;;;;;;22.47;72.32;100942.13;5005479;28;20134;-67
2022/08/26 02:28:09;;;;;;;23.80;12.30;;;;;;;22.35;73.28;100942.50;5004914;28;20425;-67
2022/08/26 02:30:38;;;;;;;22.80;12.35;;;;;;;22.23;73.31;100947.22;4996694;28;20046;-68
2022/08/26 02:33:05;;;;;;;18.35;11.70;;;;;;;22.14;73.63;100942.75;4977139;28;20046;-68
2022/08/26 02:35:33;;;;;;;16.90;11.75;;;;;;;22.03;73.64;100935.78;4986374;28;20556;-68
2022/08/26 02:38:00;;;;;;;26.85;12.75;;;;;;;22.04;73.86;100937.47;4986470;28;20046;-68
2022/08/26 02:40:39;;;;;;;19.52;13.10;;;;;;;22.21;73.26;100939.34;5001208;28;20049;-68
2022/08/26 02:43:07;;;;;;;18.35;12.02;;;;;;;22.42;72.67;100933.75;4997696;28;20218;-68
2022/08/26 02:45:34;;;;;;;20.25;11.82;;;;;;;22.39;72.83;100930.53;5002557;28;20046;-68
2022/08/26 02:48:08;;;;;;;20.38;13.45;;;;;;;22.43;72.59;100935.41;5004546;28;20053;-68
2022/08/26 02:50:34;;;;;;;25.80;13.63;;;;;;;22.46;72.76;100926.25;5004860;28;20085;-68
2022/08/26 02:53:01;;;;;;;17.52;11.80;;;;;;;22.32;73.27;100930.28;5001031;28;20068;-68
2022/08/26 02:55:28;;;;;;;18.73;12.30;;;;;;;22.31;72.68;100929.44;5005528;28;20050;-68
2022/08/26 02:57:54;;;;;;;24.65;12.85;;;;;;;22.30;73.06;100932.25;5004084;28;20522;-68
2022/08/26 03:00:22;;;;;;;28.40;13.38;;;;;;;22.25;73.51;100927.38;5003733;28;20526;-68
2022/08/26 03:02:49;;;;;;;22.48;13.23;;;;;;;22.13;73.75;100923.25;5005815;28;20046;-68
2022/08/26 03:05:16;;;;;;;29.13;12.65;;;;;;;22.10;73.82;100918.16;5003935;28;20041;-68
2022/08/26 03:07:43;;;;;;;19.60;13.52;;;;;;;22.09;73.59;100924.53;5003963;28;20133;-68
2022/08/26 03:10:11;;;;;;;18.38;13.10;;;;;;;22.16;73.45;100914.06;5005450;28;20410;-68
2022/08/26 03:12:38;;;;;;;18.65;13.40;;;;;;;22.27;72.88;100911.19;5005195;28;22018;-68
2022/08/26 03:15:07;;;;;;;24.85;12.30;;;;;;;22.30;72.42;100910.91;5002968;28;20132;-68
2022/08/26 03:17:35;;;;;;;21.27;12.98;;;;;;;22.17;73.15;100908.56;5004144;28;20064;-68
2022/08/26 03:20:02;;;;;;;18.35;12.60;;;;;;;22.10;73.10;100911.97;5004339;28;20096;-68
2022/08/26 03:22:28;;;;;;;21.88;12.40;;;;;;;22.06;73.28;100903.44;5002828;28;20096;-68
2022/08/26 03:24:54;;;;;;;27.15;13.60;;;;;;;21.97;72.98;100904.34;4991022;28;20066;-68
2022/08/26 03:27:21;;;;;;;20.55;12.48;;;;;;;21.91;72.97;100902.28;4996404;28;20042;-68
2022/08/26 03:32:30;;;;;;;24.02;12.55;;;;;;;21.90;72.75;100897.03;5008842;28;20057;-68
2022/08/26 03:34:58;;;;;;;24.52;12.68;;;;;;;21.70;73.62;100897.13;5007011;28;20045;-67
2022/08/26 03:37:24;;;;;;;19.65;13.32;;;;;;;21.60;73.90;100901.66;5009186;28;20457;-67
2022/08/26 03:39:51;;;;;;;20.13;12.65;;;;;;;21.66;74.18;100900.22;5007093;28;20564;-67
2022/08/26 03:42:17;;;;;;;19.15;12.55;;;;;;;21.71;73.50;100896.13;5007498;28;20116;-67
2022/08/26 03:44:43;;;;;;;23.67;12.80;;;;;;;21.63;74.56;100896.03;4993288;28;20506;-67
2022/08/26 03:47:11;;;;;;;27.85;12.10;;;;;;;21.48;75.25;100896.63;5001349;28;20046;-67
2022/08/26 03:49:37;;;;;;;20.85;12.63;;;;;;;21.51;74.76;100901.66;5000888;28;20468;-67
2022/08/26 03:52:06;;;;;;;30.70;15.02;;;;;;;21.35;75.60;100891.63;5008582;28;20101;-67
2022/08/26 03:54:32;;;;;;;26.17;14.02;;;;;;;21.41;75.80;100896.38;5007711;28;20124;-67
2022/08/26 03:56:59;;;;;;;23.98;12.95;;;;;;;21.35;75.45;100899.63;4998959;28;20089;-67
2022/08/26 03:59:26;;;;;;;28.25;13.65;;;;;;;21.44;75.66;100905.91;5026566;28;20092;-67
2022/08/26 04:01:52;;;;;;;23.30;13.60;;;;;;;21.45;75.61;100897.78;5006060;28;20057;-67
2022/08/26 04:04:19;;;;;;;20.25;13.90;;;;;;;21.39;76.13;100902.84;5007050;28;20042;-67
2022/08/26 04:06:45;;;;;;;24.33;13.88;;;;;;;21.52;75.70;100898.03;5008033;28;20103;-67
2022/08/26 04:09:15;;;;;;;21.20;13.32;;;;;;;21.71;74.71;100903.31;5007285;28;20069;-66
2022/08/26 04:11:43;;;;;;;19.92;14.00;;;;;;;21.57;75.58;100893.94;5006887;28;20081;-66
2022/08/26 04:14:13;;;;;;;20.10;13.10;;;;;;;21.47;75.74;100895.78;5001449;28;20495;-67
2022/08/26 04:16:40;;;;;;;19.88;13.75;;;;;;;21.52;75.93;100898.88;4998951;28;20686;-67
2022/08/26 04:19:07;;;;;;;23.70;13.90;;;;;;;21.45;76.65;100895.09;4986375;28;20486;-67
2022/08/26 04:21:36;;;;;;;26.42;13.82;;;;;;;21.59;76.21;100888.44;5003767;28;20065;-67
2022/08/26 04:24:03;;;;;;;22.17;13.75;;;;;;;21.55;77.03;100893.25;4991818;28;20073;-67
2022/08/26 04:26:35;;;;;;;22.42;14.35;;;;;;;21.49;77.48;100893.00;4986224;28;20054;-67
2022/08/26 04:29:04;;;;;;;21.15;13.63;;;;;;;21.47;78.09;100901.13;5004112;28;20128;-67
2022/08/26 04:31:31;;;;;;;31.65;13.80;;;;;;;21.34;78.77;100896.13;5007680;28;20050;-67
2022/08/26 04:33:58;;;;;;;23.45;13.55;;;;;;;21.53;78.29;100895.22;5005942;28;20073;-67
2022/08/26 04:36:24;;;;;;;20.00;13.75;;;;;;;21.63;78.12;100893.34;5006371;28;20560;-67
2022/08/26 04:38:51;;;;;;;22.85;14.20;;;;;;;21.69;77.71;100895.44;5007613;28;20049;-67
2022/08/26 04:41:19;;;;;;;24.70;13.52;;;;;;;21.79;77.17;100893.59;5002871;28;20100;-67
2022/08/26 04:43:47;;;;;;;21.17;14.18;;;;;;;21.80;77.61;100897.91;5005941;28;20050;-67
2022/08/26 04:46:18;;;;;;;26.33;13.65;;;;;;;21.56;78.81;100896.75;4987668;28;20125;-67
2022/08/26 04:48:45;;;;;;;23.45;13.57;;;;;;;21.72;78.47;100910.31;5006353;28;20149;-67
2022/08/26 04:51:11;;;;;;;24.95;13.90;;;;;;;21.99;77.72;100907.69;5006789;28;20124;-67
2022/08/26 04:53:38;;;;;;;29.05;14.13;;;;;;;22.20;77.14;100888.75;5007565;28;20069;-66
2022/08/26 04:56:04;;;;;;;27.42;15.20;;;;;;;22.34;76.31;100898.91;4999534;28;20050;-66
2022/08/26 04:58:32;;;;;;;29.35;15.07;;;;;;;22.21;77.15;100896.59;4995707;28;20080;-67
2022/08/26 05:01:00;;;;;;;32.60;14.55;;;;;;;22.13;77.58;100904.53;5008648;28;20050;-68
2022/08/26 05:03:27;;;;;;;28.13;14.63;;;;;;;22.07;78.30;100899.78;5006520;28;20115;-67
2022/08/26 05:05:54;;;;;;;23.98;15.02;;;;;;;22.23;78.28;100908.00;5005231;28;20046;-67
2022/08/26 05:08:22;;;;;;;21.92;13.75;;;;;;;22.52;78.32;100913.13;5006297;28;20557;-67
2022/08/26 05:10:53;;;;;;;31.27;15.05;;;;;;;22.82;78.19;100919.13;5006752;28;20057;-67
2022/08/26 05:13:20;;;;;;;28.00;14.47;;;;;;;23.03;77.37;100917.81;5002432;28;20046;-67
2022/08/26 05:15:48;;;;;;;26.88;13.27;;;;;;;23.07;77.05;100911.16;5000887;28;20061;-67
2022/08/26 05:18:19;;;;;;;27.67;14.10;;;;;;;23.22;76.52;100922.13;4994876;28;20046;-67
2022/08/26 05:20:48;;;;;;;22.65;13.70;;;;;;;23.39;75.88;100915.06;4995347;28;20078;-67
2022/08/26 05:23:15;;;;;;;26.88;13.38;;;;;;;23.50;75.22;100918.31;4999112;28;20061;-67
2022/08/26 05:25:45;;;;;;;23.48;14.02;;;;;;;23.47;75.58;100920.47;4994588;28;20407;-67
2022/08/26 05:28:13;;;;;;;33.45;12.95;;;;;;;23.63;75.16;100925.94;4999338;28;20077;-67
2022/08/26 05:30:40;;;;;;;29.23;13.35;;;;;;;23.56;75.21;100928.41;5003769;28;20092;-67
2022/08/26 05:33:07;;;;;;;24.20;12.27;;;;;;;23.49;75.48;100926.53;5005582;28;20100;-67
2022/08/26 05:35:37;;;;;;;19.88;12.07;;;;;;;23.67;74.61;100940.69;5006077;28;20054;-67
2022/08/26 05:38:06;;;;;;;20.55;12.77;;;;;;;24.03;73.40;100931.50;5005227;28;20098;-67
2022/08/26 05:40:34;;;;;;;20.48;11.52;;;;;;;24.17;72.39;100936.25;5003923;28;20069;-67
2022/08/26 05:43:00;;;;;;;19.90;11.95;;;;;;;23.93;72.86;100922.75;4999032;28;20065;-67
2022/08/26 05:45:27;;;;;;;19.50;11.77;;;;;;;24.27;71.74;100935.31;4997057;28;20127;-67
2022/08/26 05:47:53;;;;;;;23.42;11.88;;;;;;;24.18;71.75;100937.94;4996450;28;20283;-67
2022/08/26 05:50:21;;;;;;;21.48;12.32;;;;;;;24.55;70.44;100932.19;4997428;28;20116;-67
2022/08/26 05:52:49;;;;;;;23.80;12.10;;;;;;;24.50;70.61;100933.69;5005619;28;20045;-67
2022/08/26 05:55:16;;;;;;;22.77;11.68;;;;;;;24.60;70.31;100937.91;5002034;28;20092;-67
2022/08/26 05:57:43;;;;;;;19.35;11.73;;;;;;;24.86;69.98;100927.06;5001661;28;20058;-68
2022/08/26 06:00:11;;;;;;;20.80;11.18;;;;;;;24.86;69.79;100934.28;5007971;28;20091;-68
2022/08/26 06:02:38;;;;;;;19.45;10.07;;;;;;;25.32;68.10;100917.47;5004306;28;20585;-68
2022/08/26 06:05:05;;;;;;;21.88;11.88;;;;;;;25.60;67.14;100926.03;5003955;28;20054;-68
2022/08/26 06:10:13;;;;;;;22.35;11.10;;;;;;;25.96;66.12;100918.34;5001225;28;20064;-68
2022/08/26 06:12:40;;;;;;;22.92;11.68;;;;;;;25.92;65.45;100923.22;5003479;28;20100;-68
2022/08/26 06:15:07;;;;;;;20.88;10.68;;;;;;;26.30;64.91;100920.72;4996952;28;20074;-68
2022/08/26 06:17:33;;;;;;;21.70;10.52;;;;;;;26.46;64.34;100921.47;5004332;28;20042;-69
2022/08/26 06:20:00;;;;;;;25.77;11.32;;;;;;;26.89;62.72;100928.09;4985749;28;20047;-69
2022/08/26 06:27:56;;;;;;;20.25;9.38;;;;;;;27.04;62.34;100922.75;4974374;28;20053;-69
2022/08/26 06:30:22;;;;;;;25.23;10.10;;;;;;;27.65;60.40;100918.13;4997607;28;20136;-68
2022/08/26 06:32:48;;;;;;;25.40;9.98;;;;;;;27.86;59.89;100916.34;5005958;28;20066;-69
2022/08/26 06:35:15;;;;;;;19.38;9.82;;;;;;;28.13;59.69;100914.03;5004030;28;20497;-68
2022/08/26 06:37:42;;;;;;;17.75;9.45;;;;;;;28.56;58.06;100906.88;5004250;28;20470;-68
2022/08/26 06:40:09;;;;;;;21.88;9.80;;;;;;;28.73;57.42;100901.06;4996348;28;20056;-68
2022/08/26 06:42:36;;;;;;;16.55;8.50;;;;;;;28.40;57.76;100911.47;4994661;28;20101;-68
2022/08/26 06:45:05;;;;;;;17.35;9.77;;;;;;;28.95;57.33;100909.97;4999855;28;20052;-68
2022/08/26 06:47:32;;;;;;;18.77;9.40;;;;;;;29.04;56.35;100908.81;5005372;28;20056;-68
2022/08/26 06:49:58;;;;;;;18.65;8.82;;;;;;;28.52;58.10;100911.81;4998067;28;20113;-68
2022/08/26 06:52:25;;;;;;;22.02;9.60;;;;;;;28.93;57.38;100902.09;4984523;28;20093;-69
2022/08/26 06:54:51;;;;;;;17.92;9.68;;;;;;;28.10;58.61;100909.03;5001479;28;20100;-69
2022/08/26 06:57:17;;;;;;;26.25;9.18;;;;;;;28.96;57.59;100898.16;5001596;28;20046;-69
2022/08/26 06:59:44;;;;;;;17.80;8.18;;;;;;;29.57;56.50;100904.63;4997652;28;20394;-69
2022/08/26 07:02:11;;;;;;;28.85;8.63;;;;;;;29.17;57.50;100895.41;5008962;28;20042;-69
2022/08/26 07:04:38;;;;;;;23.80;9.80;;;;;;;28.92;59.16;100905.81;5007904;28;20081;-69
2022/08/26 07:07:04;;;;;;;16.70;8.55;;;;;;;29.80;55.07;100901.66;5006830;28;20053;-69
2022/08/26 07:09:31;;;;;;;25.02;8.88;;;;;;;29.84;53.49;100903.75;5006986;28;20046;-69
2022/08/26 07:11:58;;;;;;;18.23;9.98;;;;;;;30.21;53.32;100891.66;5005988;28;20481;-69
2022/08/26 07:14:25;;;;;;;19.38;8.43;;;;;;;30.71;52.39;100905.78;4995832;28;20073;-69
2022/08/26 07:16:52;;;;;;;20.83;9.10;;;;;;;30.37;52.39;100891.31;5004108;28;20096;-69
2022/08/26 07:19:21;;;;;;;21.77;10.13;;;;;;;30.63;51.86;100898.69;5003800;28;20093;-69
2022/08/26 07:21:47;;;;;;;22.65;10.30;;;;;;;30.65;51.89;100888.47;4983637;28;20517;-69
2022/08/26 07:24:13;;;;;;;24.10;9.43;;;;;;;30.53;51.14;100883.84;4969836;28;20105;-69
2022/08/26 07:26:40;;;;;;;17.88;9.30;;;;;;;30.70;50.67;100883.28;4985309;28;20069;-69
2022/08/26 07:29:06;;;;;;;24.25;9.32;;;;;;;30.25;53.21;100881.28;5007261;28;20042;-69
2022/08/26 07:31:34;;;;;;;25.38;10.35;;;;;;;30.93;52.30;100880.97;4992290;28;20062;-69
2022/08/26 07:34:00;;;;;;;20.63;9.88;;;;;;;31.34;50.99;100886.19;5009067;28;20046;-69
2022/08/26 07:36:29;;;;;;;17.30;9.60;;;;;;;31.04;51.68;100886.88;5005278;28;20077;-69
2022/08/26 07:38:56;;;;;;;28.17;9.60;;;;;;;31.16;49.70;100885.16;5006748;28;20052;-69
2022/08/26 07:41:24;;;;;;;29.30;9.15;;;;;;;30.57;51.28;100880.53;4994383;28;20073;-69
2022/08/26 07:43:51;;;;;;;29.77;9.77;;;;;;;30.82;50.76;100881.59;4995456;28;20069;-69
2022/08/26 07:46:18;;;;;;;25.55;9.40;;;;;;;30.16;52.90;100879.78;5009241;28;20568;-69
2022/08/26 07:48:46;;;;;;;22.13;9.80;;;;;;;30.40;54.75;100876.53;4989266;28;20135;-69
2022/08/26 07:51:13;;;;;;;25.20;9.75;;;;;;;30.74;52.40;100884.53;4998826;28;20092;-69
2022/08/26 07:53:41;;;;;;;26.77;9.20;;;;;;;31.25;49.56;100878.50;5008174;28;20058;-69
2022/08/26 07:56:08;;;;;;;24.15;9.40;;;;;;;31.26;49.07;100872.84;5004346;28;20089;-69
2022/08/26 07:58:34;;;;;;;22.77;8.90;;;;;;;30.63;51.70;100871.63;4997342;28;20058;-69
2022/08/26 08:01:00;;;;;;;30.33;9.57;;;;;;;30.95;50.08;100875.38;5002698;28;20099;-69
2022/08/26 08:03:27;;;;;;;26.10;9.60;;;;;;;31.20;50.04;100884.53;5007775;28;20057;-69
2022/08/26 08:05:53;;;;;;;26.08;9.82;;;;;;;31.32;50.22;100877.44;5007210;28;20426;-69
2022/08/26 08:08:20;;;;;;;22.63;9.30;;;;;;;32.13;48.44;100877.03;5003859;28;20065;-69
2022/08/26 08:10:49;;;;;;;19.42;8.27;;;;;;;32.38;47.92;100882.50;5001978;28;20104;-69
2022/08/26 08:13:15;;;;;;;25.65;9.35;;;;;;;32.54;46.29;100882.00;5005841;28;20452;-69
2022/08/26 08:15:42;;;;;;;26.90;9.48;;;;;;;32.69;45.66;100874.41;5006883;28;20490;-69
2022/08/26 08:18:08;;;;;;;23.92;8.60;;;;;;;32.54;47.89;100880.13;5007012;28;20049;-69
2022/08/26 08:20:35;;;;;;;25.60;8.68;;;;;;;33.33;45.39;100876.81;5006753;28;20049;-69
2022/08/26 08:23:03;;;;;;;30.33;8.85;;;;;;;33.36;45.90;100881.78;5008128;28;20046;-69
2022/08/26 08:25:29;;;;;;;20.52;8.40;;;;;;;33.81;46.61;100879.66;5005004;28;20050;-69
2022/08/26 08:27:57;;;;;;;27.77;9.18;;;;;;;34.06;42.85;100872.22;5002190;28;20460;-69
2022/08/26 08:30:23;;;;;;;20.27;8.60;;;;;;;34.57;41.91;100877.16;5007771;28;20073;-69
2022/08/26 08:32:50;;;;;;;27.40;8.10;;;;;;;33.33;44.27;100878.69;5006532;28;20520;-69
2022/08/26 08:35:19;;;;;;;29.02;7.32;;;;;;;34.25;45.26;100870.31;5006224;28;20115;-69
2022/08/26 08:37:46;;;;;;;20.63;8.82;;;;;;;34.80;40.99;100872.84;4990372;28;20042;-68
2022/08/26 08:40:16;;;;;;;21.52;8.05;;;;;;;34.61;41.88;100866.63;4990197;28;20069;-69
2022/08/26 08:42:46;;;;;;;24.85;7.93;;;;;;;34.45;41.71;100865.38;5001251;28;20054;-69
2022/08/26 08:45:17;;;;;;;18.55;8.07;;;;;;;34.40;41.27;100864.44;5000051;28;20045;-69
2022/08/26 08:47:49;;;;;;;25.08;8.65;;;;;;;33.94;42.99;100865.03;5006397;28;20620;-69
2022/08/26 08:50:22;;;;;;;28.60;8.57;;;;;;;34.39;42.21;100866.31;4998147;28;20076;-69
2022/08/26 08:52:54;;;;;;;26.50;8.65;;;;;;;34.36;42.14;100861.34;5002581;28;20096;-69
2022/08/26 08:55:22;;;;;;;23.13;8.30;;;;;;;34.01;43.65;100863.06;5006246;28;20494;-69
2022/08/26 08:57:59;;;;;;;22.17;7.65;;;;;;;34.18;41.66;100864.13;5005939;28;20045;-69
2022/08/26 09:00:36;;;;;;;23.42;8.05;;;;;;;34.12;43.61;100862.28;5005428;28;20107;-69
2022/08/26 09:03:10;;;;;;;23.85;8.95;;;;;;;32.72;45.49;100855.78;5002894;28;20049;-69
2022/08/26 09:05:43;;;;;;;28.65;8.85;;;;;;;33.03;48.17;100859.50;5008709;28;20697;-69
2022/08/26 09:08:15;;;;;;;24.80;8.20;;;;;;;34.12;43.91;100859.56;5007531;28;20073;-69
2022/08/26 09:10:46;;;;;;;29.58;8.60;;;;;;;33.80;44.83;100849.94;5006081;28;20045;-69
2022/08/26 09:13:16;;;;;;;24.02;7.40;;;;;;;34.52;42.47;100852.50;5000442;28;20447;-69
2022/08/26 09:15:50;;;;;;;27.00;7.70;;;;;;;33.65;45.49;100853.88;4995884;28;20046;-69
2022/08/26 09:18:29;;;;;;;25.25;7.85;;;;;;;33.31;45.80;100849.00;5002777;28;20046;-69
2022/08/26 09:20:58;;;;;;;24.85;7.65;;;;;;;34.05;45.19;100847.94;4999149;28;20046;-69
2022/08/26 09:23:26;;;;;;;30.83;8.07;;;;;;;33.85;45.44;100855.53;5002025;28;20078;-69
2022/08/26 09:25:54;;;;;;;33.42;8.30;;;;;;;34.23;43.98;100846.03;5005064;28;20042;-69
2022/08/26 09:28:23;;;;;;;28.58;8.48;;;;;;;34.07;45.70;100851.28;5000570;28;20041;-69
2022/08/26 09:31:03;;;;;;;23.02;7.75;;;;;;;34.08;43.35;100850.19;4998798;28;20543;-69
2022/08/26 09:33:32;;;;;;;19.50;8.30;;;;;;;32.25;46.97;100850.88;4988401;28;20050;-69
2022/08/26 09:36:21;;;;;;;27.00;8.90;;;;;;;32.54;48.98;100846.72;4986687;28;20662;-69
2022/08/26 09:38:48;;;;;;;22.63;8.57;;;;;;;33.46;48.33;100846.75;4970016;28;20057;-69
2022/08/26 09:41:27;;;;;;;24.67;8.95;;;;;;;33.98;44.67;100839.88;4975389;28;20042;-69
2022/08/26 09:44:11;;;;;;;23.50;8.82;;;;;;;34.82;42.64;100841.56;4992703;28;20042;-69
2022/08/26 09:46:41;;;;;;;23.25;8.50;;;;;;;34.73;42.55;100843.00;4997924;28;20410;-68
2022/08/26 09:49:23;;;;;;;18.80;8.05;;;;;;;35.28;43.03;100835.31;5006423;28;20042;-68
2022/08/26 09:52:04;;;;;;;22.38;8.02;;;;;;;35.43;41.87;100832.94;5001600;28;20049;-68
2022/08/26 09:54:30;;;;;;;30.55;8.48;;;;;;;36.19;40.75;100823.59;5003289;28;20045;-68
2022/08/26 09:57:12;;;;;;;20.67;8.10;;;;;;;35.60;39.27;100825.66;5005707;28;20499;-68
2022/08/26 09:59:38;;;;;;;;;;;;;;;35.70;40.87;100824.25;5005211;28;20050;-68
2022/08/26 10:02:23;;;;;;;28.05;8.05;;;;;;;35.44;43.76;100820.94;5004645;28;20328;-69
2022/08/26 10:04:52;;;;;;;20.92;7.78;;;;;;;36.44;38.14;100813.09;5006639;28;20054;-67
2022/08/26 10:07:42;;;;;;;28.88;7.75;;;;;;;36.72;40.02;100814.97;5003868;28;20135;-68
2022/08/26 10:10:13;;;;;;;31.05;8.30;;;;;;;36.97;37.42;100804.44;4986877;28;20478;-67
2022/08/26 10:12:49;;;;;;;26.17;9.02;;;;;;;37.43;37.02;100803.19;4997090;28;20538;-67
2022/08/26 10:15:17;;;;;;;32.00;9.45;;;;;;;37.09;37.64;100796.16;4995653;28;20061;-67
2022/08/26 10:17:51;;;;;;;24.52;7.88;;;;;;;37.00;36.66;100792.97;4992378;28;20050;-67
2022/08/26 10:20:22;;;;;;;20.45;7.88;;;;;;;37.52;39.09;100790.72;4984965;28;20093;-67
2022/08/26 10:22:53;;;;;;;25.85;7.72;;;;;;;37.86;36.48;100785.09;4989419;28;20465;-68
2022/08/26 10:25:24;;;;;;;26.65;8.18;;;;;;;37.59;36.95;100779.59;4979175;28;20054;-68
2022/08/26 10:28:03;;;;;;;22.95;7.65;;;;;;;37.27;35.57;100776.72;4989896;28;20136;-68
2022/08/26 10:30:37;;;;;;;18.90;8.40;;;;;;;36.28;38.25;100762.06;5004122;28;20056;-68
2022/08/26 10:33:07;;;;;;;24.73;8.23;;;;;;;37.01;39.89;100761.84;5004011;28;20050;-68
2022/08/26 10:35:38;;;;;;;19.10;7.82;;;;;;;36.39;37.77;100760.31;5004228;28;20069;-69
2022/08/26 10:38:13;;;;;;;18.75;8.07;;;;;;;35.55;39.27;100756.56;5003882;28;20648;-69
2022/08/26 10:40:49;;;;;;;31.52;8.00;;;;;;;35.44;39.56;100746.50;5004554;28;20477;-68
2022/08/26 10:43:22;;;;;;;21.45;7.30;;;;;;;35.89;40.22;100752.84;5005066;28;20116;-68
2022/08/26 10:45:52;;;;;;;24.77;8.32;;;;;;;34.77;39.85;100743.41;4985823;28;20050;-68
2022/08/26 10:48:24;;;;;;;32.88;7.38;;;;;;;34.20;40.59;100742.25;4999151;28;20039;-68
2022/08/26 10:50:51;;;;;;;30.63;7.82;;;;;;;34.27;39.83;100734.78;5004336;28;20034;-68
2022/08/26 10:53:22;;;;;;;18.45;6.88;;;;;;;34.68;40.32;100728.47;5006292;28;20476;-68
2022/08/26 10:55:59;;;;;;;26.15;7.68;;;;;;;34.99;38.58;100714.47;5004587;28;20049;-69
2022/08/26 10:58:41;;;;;;;22.60;8.02;;;;;;;34.46;40.35;100714.56;4996225;28;20050;-69
2022/08/26 11:04:06;;;;;;;29.75;7.93;;;;;;;34.19;42.88;100702.47;5004706;28;20300;-69
2022/08/26 11:06:32;;;;;;;20.35;7.30;;;;;;;34.03;41.24;100698.53;4997197;28;20081;-68
2022/08/26 11:09:00;;;;;;;23.25;8.38;;;;;;;34.19;40.64;100684.25;4984628;28;20300;-68
2022/08/26 11:11:44;;;;;;;22.98;8.15;;;;;;;33.86;42.05;100685.81;4991177;28;20050;-69
2022/08/26 11:14:11;;;;;;;24.85;8.10;;;;;;;33.79;42.96;100679.63;5006386;28;20049;-69
2022/08/26 11:16:40;;;;;;;21.02;8.43;;;;;;;34.15;42.96;100683.06;4991954;28;20506;-69
2022/08/26 11:19:10;;;;;;;26.48;7.75;;;;;;;34.62;40.41;100674.91;4986112;28;20054;-69
2022/08/26 11:21:51;;;;;;;23.50;7.47;;;;;;;34.43;40.52;100668.78;4985382;28;20042;-69
2022/08/26 11:24:40;;;;;;;27.65;7.22;;;;;;;35.06;41.11;100666.09;4986141;28;20406;-69
2022/08/26 11:27:26;;;;;;;23.25;7.13;;;;;;;35.78;39.00;100658.25;4994409;28;20100;-69
2022/08/26 11:29:59;;;;;;;14.32;6.88;;;;;;;36.42;37.87;100656.03;4996827;28;20046;-68
2022/08/26 11:32:44;;;;;;;23.90;6.15;;;;;;;36.72;35.11;100663.88;5004145;28;20476;-68
2022/08/26 11:35:48;;;;;;;22.13;7.20;;;;;;;36.60;34.99;100658.50;5006380;28;20489;-68
2022/08/26 11:38:19;;;;;;;25.60;6.93;;;;;;;36.84;33.93;100654.47;4980709;28;20100;-68